Time;durP1;ratioP1;P1;durP2;ratioP2;P2;SDS_P1;SDS_P2;PMS_P1;PMS_P2;Temp;Humidity;BMP_temperature;BMP_pressure;BME280_temperature;BME280_humidity;BME280_pressure;Samples;Min_cycle;Max_cycle;Signal;HPM_P1;HPM_P2
2023/06/01 00:00:49;;;;;;;6.53;3.63;;;;;;;;;;4993553;28;20046;-75
2023/06/01 00:03:16;;;;;;;8.52;4.35;;;;;;;;;;4991706;28;20058;-75
2023/06/01 00:05:41;;;;;;;5.50;3.08;;;;;;;;;;4989713;28;20041;-75
2023/06/01 00:08:07;;;;;;;4.93;2.97;;;;;;;;;;4991926;28;20085;-76
2023/06/01 00:10:32;;;;;;;6.50;3.28;;;;;;;;;;4993459;28;20073;-74
2023/06/01 00:12:58;;;;;;;7.05;3.58;;;;;;;;;;4994142;28;20057;-75
2023/06/01 00:15:23;;;;;;;9.27;3.88;;;;;;;;;;4992346;28;20042;-75
2023/06/01 00:17:51;;;;;;;4.65;3.13;;;;;;;;;;4985301;28;20480;-75
2023/06/01 00:20:17;;;;;;;5.20;3.53;;;;;;;;;;4993256;28;20034;-73
2023/06/01 00:22:43;;;;;;;5.88;3.30;;;;;;;;;;4993486;28;20483;-75
2023/06/01 00:25:09;;;;;;;7.28;3.63;;;;;;;;;;4992335;28;20501;-74
2023/06/01 00:27:35;;;;;;;5.18;3.50;;;;;;;;;;4993043;28;20026;-75
2023/06/01 00:30:00;;;;;;;4.88;2.78;;;;;;;;;;4993763;28;20121;-75
2023/06/01 00:32:26;;;;;;;5.65;3.22;;;;;;;;;;4992655;28;20069;-74
2023/06/01 00:34:51;;;;;;;6.97;3.17;;;;;;;;;;4996607;28;20050;-75
2023/06/01 00:37:16;;;;;;;9.38;3.63;;;;;;;;;;4996436;28;20434;-75
2023/06/01 00:39:42;;;;;;;4.85;3.00;;;;;;;;;;4996095;28;20034;-75
2023/06/01 00:42:07;;;;;;;4.90;2.67;;;;;;;;;;4997256;28;20100;-75
2023/06/01 00:44:33;;;;;;;5.72;3.55;;;;;;;;;;4997678;28;20034;-75
2023/06/01 00:46:59;;;;;;;5.15;3.45;;;;;;;;;;4997456;28;20038;-75
2023/06/01 00:49:25;;;;;;;6.50;3.47;;;;;;;;;;4996788;28;20062;-74
2023/06/01 00:51:50;;;;;;;5.78;3.30;;;;;;;;;;4997300;28;20073;-75
2023/06/01 00:54:16;;;;;;;4.50;2.88;;;;;;;;;;5012488;28;20449;-75
2023/06/01 00:56:41;;;;;;;8.63;3.45;;;;;;;;;;4996008;28;20465;-75
2023/06/01 00:59:08;;;;;;;7.15;3.45;;;;;;;;;;4995824;28;20057;-75
2023/06/01 01:01:33;;;;;;;8.45;3.10;;;;;;;;;;4988457;28;20092;-75
2023/06/01 01:04:00;;;;;;;4.28;3.00;;;;;;;;;;4997000;28;20125;-75
2023/06/01 01:07:01;;;;;;;4.93;3.08;;;;;;;;;;4996589;28;20397;-74
2023/06/01 01:09:50;;;;;;;6.68;3.63;;;;;;;;;;4986377;28;20057;-75
2023/06/01 01:12:29;;;;;;;4.38;2.60;;;;;;;;;;4995157;28;20046;-75
2023/06/01 01:15:08;;;;;;;4.63;2.90;;;;;;;;;;4997166;28;20077;-75
2023/06/01 01:17:39;;;;;;;5.07;2.85;;;;;;;;;;4995864;28;20042;-73
2023/06/01 01:20:15;;;;;;;4.25;2.85;;;;;;;;;;4994512;28;20487;-75
2023/06/01 01:23:14;;;;;;;4.63;2.83;;;;;;;;;;4995701;28;20039;-75
2023/06/01 01:26:00;;;;;;;4.72;2.55;;;;;;;;;;4988812;28;20112;-74
2023/06/01 01:28:41;;;;;;;4.15;2.22;;;;;;;;;;4995690;28;20046;-74
2023/06/01 01:31:09;;;;;;;4.57;2.33;;;;;;;;;;4996547;28;20117;-75
2023/06/01 01:33:35;;;;;;;3.03;1.80;;;;;;;;;;4996362;28;20088;-74
2023/06/01 01:36:01;;;;;;;5.03;2.10;;;;;;;;;;4996548;28;20046;-75
2023/06/01 01:38:26;;;;;;;4.18;2.40;;;;;;;;;;4996454;28;20042;-75
2023/06/01 01:40:52;;;;;;;6.45;2.60;;;;;;;;;;4996271;28;20078;-75
2023/06/01 01:43:19;;;;;;;4.85;2.15;;;;;;;;;;4996262;28;20470;-74
2023/06/01 01:45:47;;;;;;;3.83;2.63;;;;;;;;;;4993659;28;20073;-74
2023/06/01 01:48:42;;;;;;;2.08;1.35;;;;;;;;;;4995218;28;20045;-75
2023/06/01 01:51:11;;;;;;;3.92;2.20;;;;;;;;;;4992963;28;20512;-75
2023/06/01 01:53:37;;;;;;;6.35;2.63;;;;;;;;;;4995094;28;20053;-74
2023/06/01 01:56:04;;;;;;;4.15;2.22;;;;;;;;;;4996250;28;20042;-74
2023/06/01 01:58:29;;;;;;;6.18;2.03;;;;;;;;;;4989941;28;20046;-75
2023/06/01 02:00:55;;;;;;;2.42;1.70;;;;;;;;;;4995190;28;20070;-75
2023/06/01 02:03:21;;;;;;;11.48;1.80;;;;;;;;;;4994481;28;20042;-74
2023/06/01 02:05:46;;;;;;;7.15;2.33;;;;;;;;;;4995899;28;20049;-74
2023/06/01 02:08:12;;;;;;;3.35;1.95;;;;;;;;;;4995992;28;20034;-74
2023/06/01 02:10:37;;;;;;;2.75;1.73;;;;;;;;;;4995678;28;20026;-75
2023/06/01 02:13:03;;;;;;;3.15;1.83;;;;;;;;;;4990955;28;20042;-75
2023/06/01 02:15:28;;;;;;;3.58;2.30;;;;;;;;;;4995664;28;20042;-75
2023/06/01 02:17:54;;;;;;;2.65;1.50;;;;;;;;;;4995862;28;20471;-75
2023/06/01 02:20:20;;;;;;;3.72;2.08;;;;;;;;;;4994075;28;20368;-75
2023/06/01 02:22:45;;;;;;;3.70;2.15;;;;;;;;;;4989870;28;20042;-75
2023/06/01 02:25:10;;;;;;;3.13;2.10;;;;;;;;;;4995665;28;20057;-75
2023/06/01 02:27:36;;;;;;;2.60;1.77;;;;;;;;;;4994360;28;20038;-74
2023/06/01 02:30:03;;;;;;;4.10;1.83;;;;;;;;;;4995392;28;20042;-75
2023/06/01 02:32:30;;;;;;;3.60;2.20;;;;;;;;;;4989255;28;20089;-75
2023/06/01 02:34:56;;;;;;;3.10;2.17;;;;;;;;;;4995510;28;20038;-75
2023/06/01 02:37:21;;;;;;;3.50;1.90;;;;;;;;;;4995070;28;20103;-75
2023/06/01 02:39:47;;;;;;;3.15;1.77;;;;;;;;;;4995579;28;20030;-75
2023/06/01 02:42:13;;;;;;;4.68;2.47;;;;;;;;;;4994458;28;20045;-75
2023/06/01 02:44:38;;;;;;;3.30;1.63;;;;;;;;;;4994074;28;20046;-75
2023/06/01 02:47:04;;;;;;;3.15;2.00;;;;;;;;;;4995188;28;20030;-75
2023/06/01 02:49:30;;;;;;;4.38;2.10;;;;;;;;;;4995345;28;20034;-75
2023/06/01 02:51:55;;;;;;;3.95;1.80;;;;;;;;;;4994999;28;20068;-75
2023/06/01 02:54:20;;;;;;;3.90;2.00;;;;;;;;;;4995336;28;20485;-75
2023/06/01 02:56:46;;;;;;;2.97;2.00;;;;;;;;;;4994548;28;20042;-75
2023/06/01 02:59:11;;;;;;;9.90;2.10;;;;;;;;;;4994585;28;20530;-75
2023/06/01 03:01:37;;;;;;;3.67;1.98;;;;;;;;;;4994251;28;20042;-74
2023/06/01 03:04:05;;;;;;;5.90;2.00;;;;;;;;;;4994848;28;20121;-75
2023/06/01 03:06:31;;;;;;;3.40;2.40;;;;;;;;;;4984429;28;20038;-74
2023/06/01 03:08:58;;;;;;;3.55;1.90;;;;;;;;;;4994389;28;20125;-75
2023/06/01 03:11:23;;;;;;;4.05;2.03;;;;;;;;;;4993695;28;20153;-74
2023/06/01 03:13:50;;;;;;;5.13;2.50;;;;;;;;;;4994080;28;20236;-75
2023/06/01 03:16:16;;;;;;;4.88;1.95;;;;;;;;;;4987000;28;20030;-75
2023/06/01 03:18:42;;;;;;;2.92;1.73;;;;;;;;;;4987496;28;20058;-75
2023/06/01 03:21:07;;;;;;;5.32;2.30;;;;;;;;;;4991966;28;20073;-75
2023/06/01 03:23:33;;;;;;;4.65;2.60;;;;;;;;;;4992586;28;20034;-75
2023/06/01 03:25:58;;;;;;;5.43;2.88;;;;;;;;;;5022545;28;20075;-75
2023/06/01 03:28:24;;;;;;;5.55;2.72;;;;;;;;;;4988654;28;20470;-75
2023/06/01 03:30:51;;;;;;;7.18;3.00;;;;;;;;;;4992279;28;20034;-75
2023/06/01 03:33:16;;;;;;;5.25;2.75;;;;;;;;;;4994426;28;20049;-75
2023/06/01 03:35:44;;;;;;;6.55;3.33;;;;;;;;;;4994190;28;20034;-75
2023/06/01 03:38:09;;;;;;;5.35;3.33;;;;;;;;;;4990214;28;20111;-75
2023/06/01 03:40:34;;;;;;;5.07;2.95;;;;;;;;;;4988788;28;20117;-75
2023/06/01 03:43:00;;;;;;;5.93;3.30;;;;;;;;;;4992947;28;20046;-75
2023/06/01 03:45:26;;;;;;;6.00;2.60;;;;;;;;;;4994269;28;20043;-75
2023/06/01 03:47:51;;;;;;;5.80;2.95;;;;;;;;;;4993999;28;20605;-75
2023/06/01 03:50:16;;;;;;;6.78;3.25;;;;;;;;;;4993816;28;20038;-75
2023/06/01 03:52:42;;;;;;;6.25;3.38;;;;;;;;;;4993810;28;20026;-75
2023/06/01 03:55:10;;;;;;;6.05;3.53;;;;;;;;;;4994192;28;20442;-75
2023/06/01 03:57:36;;;;;;;6.10;3.08;;;;;;;;;;4993225;28;20470;-75
2023/06/01 04:00:17;;;;;;;9.73;3.97;;;;;;;;;;4992532;28;20081;-76
2023/06/01 04:02:48;;;;;;;4.93;2.97;;;;;;;;;;4993520;28;20061;-75
2023/06/01 04:05:16;;;;;;;6.47;3.38;;;;;;;;;;4991336;28;20046;-74
2023/06/01 04:07:45;;;;;;;6.68;3.53;;;;;;;;;;4992254;28;20125;-75
2023/06/01 04:10:13;;;;;;;8.23;4.40;;;;;;;;;;4991739;28;20039;-75
2023/06/01 04:12:39;;;;;;;7.55;4.20;;;;;;;;;;4992408;28;20045;-73
2023/06/01 04:15:05;;;;;;;9.48;3.63;;;;;;;;;;4991192;28;20042;-75
2023/06/01 04:17:30;;;;;;;8.60;4.10;;;;;;;;;;4993783;28;20030;-75
2023/06/01 04:19:56;;;;;;;7.57;4.45;;;;;;;;;;4993619;28;20100;-75
2023/06/01 04:22:21;;;;;;;12.65;5.40;;;;;;;;;;4993405;28;20038;-75
2023/06/01 04:24:47;;;;;;;9.13;3.17;;;;;;;;;;4993737;28;20499;-75
2023/06/01 04:27:15;;;;;;;6.28;3.17;;;;;;;;;;4993644;28;20063;-75
2023/06/01 04:29:43;;;;;;;9.52;4.40;;;;;;;;;;4993424;28;20104;-74
2023/06/01 04:32:09;;;;;;;9.07;4.30;;;;;;;;;;4993309;28;20049;-74
2023/06/01 04:34:35;;;;;;;6.55;3.50;;;;;;;;;;4993574;28;20113;-75
2023/06/01 04:37:02;;;;;;;8.07;4.20;;;;;;;;;;4993465;28;20517;-75
2023/06/01 04:39:28;;;;;;;8.38;4.03;;;;;;;;;;4993312;28;20112;-75
2023/06/01 04:41:55;;;;;;;8.52;4.40;;;;;;;;;;4993285;28;20066;-75
2023/06/01 04:44:21;;;;;;;6.07;3.17;;;;;;;;;;4988386;28;20035;-75
2023/06/01 04:46:47;;;;;;;10.80;3.95;;;;;;;;;;4993371;28;20040;-74
2023/06/01 04:49:14;;;;;;;3.78;1.75;;;;;;;;;;4992218;28;20109;-75
2023/06/01 04:51:40;;;;;;;7.57;3.88;;;;;;;;;;4993091;28;20566;-74
2023/06/01 04:54:05;;;;;;;9.02;4.38;;;;;;;;;;4993307;28;20325;-75
2023/06/01 04:56:31;;;;;;;7.65;3.55;;;;;;;;;;4993000;28;20030;-75
2023/06/01 04:58:57;;;;;;;7.35;3.50;;;;;;;;;;4993428;28;20137;-75
2023/06/01 05:01:24;;;;;;;11.52;4.22;;;;;;;;;;4990673;28;20126;-75
2023/06/01 05:03:51;;;;;;;8.25;5.28;;;;;;;;;;4991993;28;20100;-75
2023/06/01 05:06:17;;;;;;;6.95;4.22;;;;;;;;;;4992518;28;20065;-74
2023/06/01 05:08:43;;;;;;;5.97;3.53;;;;;;;;;;4993155;28;20034;-74
2023/06/01 05:11:09;;;;;;;11.57;4.90;;;;;;;;;;4991553;28;20113;-75
2023/06/01 05:13:35;;;;;;;9.13;4.57;;;;;;;;;;4993367;28;20066;-75
2023/06/01 05:16:02;;;;;;;9.80;5.13;;;;;;;;;;4988335;28;20070;-75
2023/06/01 05:18:28;;;;;;;10.50;3.97;;;;;;;;;;5024249;28;20462;-75
2023/06/01 05:20:53;;;;;;;9.75;4.22;;;;;;;;;;4987172;28;20037;-75
2023/06/01 05:23:18;;;;;;;8.57;3.95;;;;;;;;;;4996857;28;20465;-75
2023/06/01 05:25:44;;;;;;;6.85;3.50;;;;;;;;;;4996587;28;20070;-74
2023/06/01 05:28:09;;;;;;;9.48;4.53;;;;;;;;;;4996943;28;20035;-74
2023/06/01 05:30:35;;;;;;;12.32;4.40;;;;;;;;;;4991119;28;20057;-75
2023/06/01 05:33:00;;;;;;;9.15;4.68;;;;;;;;;;4996477;28;20038;-75
2023/06/01 05:35:26;;;;;;;7.32;4.30;;;;;;;;;;4996519;28;20046;-75
2023/06/01 05:37:51;;;;;;;6.85;3.78;;;;;;;;;;4996646;28;20115;-75
2023/06/01 05:40:16;;;;;;;4.57;2.63;;;;;;;;;;4996313;28;20088;-75
2023/06/01 05:42:42;;;;;;;4.03;2.70;;;;;;;;;;4995267;28;20038;-75
2023/06/01 05:45:09;;;;;;;12.60;5.25;;;;;;;;;;4995216;28;20478;-75
2023/06/01 05:47:34;;;;;;;11.73;4.78;;;;;;;;;;4994975;28;20066;-75
2023/06/01 05:49:59;;;;;;;11.07;4.22;;;;;;;;;;4996172;28;20391;-75
2023/06/01 05:52:25;;;;;;;6.82;3.47;;;;;;;;;;4995636;28;20074;-75
2023/06/01 05:54:53;;;;;;;9.88;4.22;;;;;;;;;;4996203;28;20458;-75
2023/06/01 05:57:19;;;;;;;6.95;4.07;;;;;;;;;;4994989;28;20042;-75
2023/06/01 05:59:45;;;;;;;10.35;3.50;;;;;;;;;;4995586;28;20042;-75
2023/06/01 06:02:11;;;;;;;8.77;3.58;;;;;;;;;;4995012;28;20034;-73
2023/06/01 06:04:36;;;;;;;11.35;4.70;;;;;;;;;;4995954;28;20042;-75
2023/06/01 06:07:02;;;;;;;6.68;3.15;;;;;;;;;;4995849;28;20114;-75
2023/06/01 06:09:27;;;;;;;9.73;4.25;;;;;;;;;;4987724;28;20038;-74
2023/06/01 06:11:52;;;;;;;7.28;4.00;;;;;;;;;;4992964;28;20046;-75
2023/06/01 06:14:18;;;;;;;10.68;4.60;;;;;;;;;;4995561;28;20038;-76
2023/06/01 06:16:43;;;;;;;9.82;4.10;;;;;;;;;;4995767;28;20038;-76
2023/06/01 06:19:09;;;;;;;10.38;4.65;;;;;;;;;;4988677;28;20038;-75
2023/06/01 06:21:35;;;;;;;8.88;3.90;;;;;;;;;;4995745;28;20038;-75
2023/06/01 06:24:01;;;;;;;9.00;4.40;;;;;;;;;;4995485;28;20526;-75
2023/06/01 06:26:27;;;;;;;9.48;4.03;;;;;;;;;;4995468;28;20126;-74
2023/06/01 06:28:52;;;;;;;7.15;3.88;;;;;;;;;;4995252;28;21210;-75
2023/06/01 06:31:18;;;;;;;7.40;3.70;;;;;;;;;;4993964;28;20045;-75
2023/06/01 06:33:43;;;;;;;9.48;4.50;;;;;;;;;;4994054;28;20487;-74
2023/06/01 06:36:08;;;;;;;9.70;3.72;;;;;;;;;;4994810;28;20034;-75
2023/06/01 06:38:34;;;;;;;8.73;4.38;;;;;;;;;;4995216;28;20038;-75
2023/06/01 06:40:59;;;;;;;6.90;3.08;;;;;;;;;;4990385;28;20031;-75
2023/06/01 06:43:25;;;;;;;9.55;4.18;;;;;;;;;;4991345;28;20034;-75
2023/06/01 06:45:50;;;;;;;9.55;4.45;;;;;;;;;;4995251;28;20490;-75
2023/06/01 06:48:15;;;;;;;9.63;4.10;;;;;;;;;;4995178;28;20048;-75
2023/06/01 06:50:44;;;;;;;12.18;4.25;;;;;;;;;;4995249;28;20041;-75
2023/06/01 06:53:09;;;;;;;12.75;4.15;;;;;;;;;;4995421;28;20063;-75
2023/06/01 06:55:35;;;;;;;8.00;3.72;;;;;;;;;;4994974;28;20073;-75
2023/06/01 06:58:00;;;;;;;9.27;3.72;;;;;;;;;;4994904;28;20034;-75
2023/06/01 07:00:26;;;;;;;10.85;4.40;;;;;;;;;;4994978;28;20022;-75
2023/06/01 07:02:52;;;;;;;6.07;3.72;;;;;;;;;;4993444;28;20052;-75
2023/06/01 07:05:18;;;;;;;6.35;3.35;;;;;;;;;;4993656;28;20039;-75
2023/06/01 07:07:43;;;;;;;9.07;4.03;;;;;;;;;;4993865;28;20035;-74
2023/06/01 07:10:09;;;;;;;8.80;3.80;;;;;;;;;;4993901;28;20038;-75
2023/06/01 07:12:34;;;;;;;6.43;3.08;;;;;;;;;;4994750;28;20050;-75
2023/06/01 07:15:00;;;;;;;11.73;3.80;;;;;;;;;;4994520;28;20036;-75
2023/06/01 07:17:26;;;;;;;11.98;4.22;;;;;;;;;;4994274;28;20125;-74
2023/06/01 07:19:51;;;;;;;7.47;3.85;;;;;;;;;;4994091;28;20042;-75
2023/06/01 07:22:17;;;;;;;7.15;3.25;;;;;;;;;;4988534;28;20050;-75
2023/06/01 07:24:43;;;;;;;8.95;3.25;;;;;;;;;;4993898;28;20471;-75
2023/06/01 07:27:08;;;;;;;7.82;3.88;;;;;;;;;;4994693;28;20125;-75
2023/06/01 07:29:34;;;;;;;6.65;3.70;;;;;;;;;;4993890;28;20517;-75
2023/06/01 07:31:59;;;;;;;7.28;3.50;;;;;;;;;;4994702;28;20038;-76
2023/06/01 07:34:25;;;;;;;5.28;3.20;;;;;;;;;;4992207;28;20061;-73
2023/06/01 07:36:50;;;;;;;8.75;3.35;;;;;;;;;;4987379;28;20070;-76
2023/06/01 07:39:16;;;;;;;7.07;3.30;;;;;;;;;;4992797;28;20125;-75
2023/06/01 07:41:44;;;;;;;6.30;3.58;;;;;;;;;;4990421;28;20038;-75
2023/06/01 07:44:10;;;;;;;10.30;3.63;;;;;;;;;;4984203;28;20030;-75
2023/06/01 07:46:35;;;;;;;5.30;3.42;;;;;;;;;;4997697;28;20088;-75
2023/06/01 07:49:01;;;;;;;6.25;3.20;;;;;;;;;;4994306;28;20073;-75
2023/06/01 07:51:28;;;;;;;8.23;3.33;;;;;;;;;;4992705;28;20034;-75
2023/06/01 07:53:57;;;;;;;9.60;3.33;;;;;;;;;;4994302;28;20046;-75
2023/06/01 07:56:26;;;;;;;8.30;3.67;;;;;;;;;;4978254;28;20042;-75
2023/06/01 07:58:53;;;;;;;5.28;2.83;;;;;;;;;;4987159;28;20101;-76
2023/06/01 08:01:19;;;;;;;11.88;2.95;;;;;;;;;;4987508;28;20394;-73
2023/06/01 08:03:45;;;;;;;5.18;2.90;;;;;;;;;;4996979;28;20037;-75
2023/06/01 08:06:11;;;;;;;6.45;2.65;;;;;;;;;;4989549;28;20038;-76
2023/06/01 08:08:36;;;;;;;8.82;3.22;;;;;;;;;;4989807;28;20050;-74
2023/06/01 08:11:02;;;;;;;6.80;2.97;;;;;;;;;;4989902;28;20044;-75
2023/06/01 08:13:27;;;;;;;6.70;3.47;;;;;;;;;;4988037;28;20037;-75
2023/06/01 08:15:53;;;;;;;8.20;3.08;;;;;;;;;;4989608;28;20038;-75
2023/06/01 08:18:22;;;;;;;7.28;3.17;;;;;;;;;;4985944;28;20121;-74
2023/06/01 08:20:48;;;;;;;5.53;2.78;;;;;;;;;;4990636;28;20058;-75
2023/06/01 08:23:16;;;;;;;5.53;3.00;;;;;;;;;;4992255;28;20189;-75
2023/06/01 08:25:42;;;;;;;8.07;3.90;;;;;;;;;;4980075;28;20050;-72
2023/06/01 08:28:08;;;;;;;10.02;3.15;;;;;;;;;;4989926;28;20089;-75
2023/06/01 08:30:33;;;;;;;4.00;2.47;;;;;;;;;;4990851;28;20458;-75
2023/06/01 08:32:58;;;;;;;6.07;3.17;;;;;;;;;;4992108;28;20046;-74
2023/06/01 08:35:25;;;;;;;6.88;3.30;;;;;;;;;;4991860;28;20425;-74
2023/06/01 08:37:50;;;;;;;6.10;2.88;;;;;;;;;;4992319;28;20039;-75
2023/06/01 08:40:16;;;;;;;9.00;3.55;;;;;;;;;;4992286;28;20046;-75
2023/06/01 08:42:45;;;;;;;6.68;2.95;;;;;;;;;;4992405;28;20394;-75
2023/06/01 08:45:11;;;;;;;5.78;3.47;;;;;;;;;;4992011;28;20145;-75
2023/06/01 08:47:38;;;;;;;10.65;3.72;;;;;;;;;;4992154;28;20073;-75
2023/06/01 08:50:04;;;;;;;6.00;2.72;;;;;;;;;;4990699;28;20042;-75
2023/06/01 08:52:31;;;;;;;4.78;2.95;;;;;;;;;;4989500;28;20042;-74
2023/06/01 08:55:03;;;;;;;3.95;2.17;;;;;;;;;;4993757;28;20046;-75
2023/06/01 08:57:29;;;;;;;4.68;2.90;;;;;;;;;;4989391;28;20046;-74
2023/06/01 08:59:55;;;;;;;9.25;4.00;;;;;;;;;;4994478;28;20042;-75
2023/06/01 09:02:21;;;;;;;8.57;3.28;;;;;;;;;;4993214;28;20041;-75
2023/06/01 09:04:47;;;;;;;5.57;3.35;;;;;;;;;;4992883;28;20530;-75
2023/06/01 09:07:15;;;;;;;7.68;4.25;;;;;;;;;;4992824;28;20479;-75
2023/06/01 09:09:40;;;;;;;6.25;3.75;;;;;;;;;;4993431;28;20030;-75
2023/06/01 09:12:29;;;;;;;6.38;3.30;;;;;;;;;;4992837;28;20045;-75
2023/06/01 09:15:17;;;;;;;7.70;3.60;;;;;;;;;;4990041;28;20049;-75
2023/06/01 09:17:46;;;;;;;5.22;3.03;;;;;;;;;;4987799;28;20038;-75
2023/06/01 09:20:23;;;;;;;4.18;2.63;;;;;;;;;;4991152;28;20760;-75
2023/06/01 09:22:48;;;;;;;7.80;3.50;;;;;;;;;;4990969;28;20046;-74
2023/06/01 09:25:14;;;;;;;4.68;2.35;;;;;;;;;;4992587;28;20057;-75
2023/06/01 09:27:50;;;;;;;5.82;2.85;;;;;;;;;;4988142;28;20038;-75
2023/06/01 09:30:17;;;;;;;5.30;2.95;;;;;;;;;;4991067;28;20038;-75
2023/06/01 09:32:47;;;;;;;7.35;3.20;;;;;;;;;;4991778;28;20043;-75
2023/06/01 09:35:12;;;;;;;5.43;2.97;;;;;;;;;;4993238;28;20093;-74
2023/06/01 09:37:38;;;;;;;8.13;2.95;;;;;;;;;;4991150;28;20089;-75
2023/06/01 09:40:18;;;;;;;5.05;2.42;;;;;;;;;;4977015;28;21032;-76
2023/06/01 09:42:43;;;;;;;6.50;2.83;;;;;;;;;;4991686;28;20042;-75
2023/06/01 09:45:37;;;;;;;5.32;2.70;;;;;;;;;;4990855;28;20038;-75
2023/06/01 09:48:20;;;;;;;5.10;2.53;;;;;;;;;;4990243;28;20050;-73
2023/06/01 09:50:46;;;;;;;5.65;3.03;;;;;;;;;;4990469;28;20038;-75
2023/06/01 09:53:11;;;;;;;7.28;3.05;;;;;;;;;;4992139;28;20049;-73
2023/06/01 09:55:56;;;;;;;5.28;2.92;;;;;;;;;;4991355;28;20038;-74
2023/06/01 09:58:22;;;;;;;6.40;3.50;;;;;;;;;;4991339;28;20067;-75
2023/06/01 10:00:49;;;;;;;6.50;3.00;;;;;;;;;;4991426;28;20101;-72
2023/06/01 10:03:15;;;;;;;8.30;3.00;;;;;;;;;;4992420;28;20099;-75
2023/06/01 10:05:42;;;;;;;7.10;3.38;;;;;;;;;;4983121;28;20050;-74
2023/06/01 10:08:09;;;;;;;5.78;3.40;;;;;;;;;;4989794;28;20097;-75
2023/06/01 10:10:35;;;;;;;5.47;3.15;;;;;;;;;;4990246;28;20434;-75
2023/06/01 10:13:01;;;;;;;6.78;3.55;;;;;;;;;;4990502;28;20046;-75
2023/06/01 10:15:26;;;;;;;6.90;3.42;;;;;;;;;;4990445;28;20379;-74
2023/06/01 10:17:52;;;;;;;8.38;3.90;;;;;;;;;;4989340;28;20161;-75
2023/06/01 10:20:18;;;;;;;6.15;3.08;;;;;;;;;;4989748;28;20057;-75
2023/06/01 10:22:43;;;;;;;5.90;3.45;;;;;;;;;;4989945;28;20050;-75
2023/06/01 10:25:10;;;;;;;6.15;3.70;;;;;;;;;;4991536;28;20038;-75
2023/06/01 10:27:40;;;;;;;7.28;3.30;;;;;;;;;;4990225;28;20498;-74
2023/06/01 10:30:09;;;;;;;6.10;3.30;;;;;;;;;;4995675;28;20060;-73
2023/06/01 10:32:37;;;;;;;5.03;2.90;;;;;;;;;;4982183;28;20026;-73
2023/06/01 10:35:03;;;;;;;5.57;2.75;;;;;;;;;;4991864;28;20045;-75
2023/06/01 10:37:29;;;;;;;6.10;3.22;;;;;;;;;;4990633;28;20120;-75
2023/06/01 10:40:18;;;;;;;6.47;3.30;;;;;;;;;;4991527;28;20057;-74
2023/06/01 10:42:43;;;;;;;6.00;2.88;;;;;;;;;;4986009;28;20494;-74
2023/06/01 10:45:38;;;;;;;6.13;3.80;;;;;;;;;;4992295;28;20080;-74
2023/06/01 10:48:10;;;;;;;6.75;3.33;;;;;;;;;;4990127;28;20427;-75
2023/06/01 10:50:38;;;;;;;8.27;3.78;;;;;;;;;;4989770;28;20463;-74
2023/06/01 10:53:30;;;;;;;7.10;3.20;;;;;;;;;;4991146;28;20072;-75
2023/06/01 10:56:21;;;;;;;5.90;2.85;;;;;;;;;;4989710;28;20022;-75
2023/06/01 10:59:07;;;;;;;6.15;3.33;;;;;;;;;;4990143;28;20741;-75
2023/06/01 11:01:43;;;;;;;7.80;3.13;;;;;;;;;;4990386;28;20022;-75
2023/06/01 11:04:09;;;;;;;5.70;3.05;;;;;;;;;;4989245;28;20504;-75
2023/06/01 11:06:37;;;;;;;8.25;3.85;;;;;;;;;;4989343;28;20030;-75
2023/06/01 11:09:08;;;;;;;6.18;3.25;;;;;;;;;;4988406;28;20483;-74
2023/06/01 11:11:50;;;;;;;8.82;3.40;;;;;;;;;;4989932;28;20034;-75
2023/06/01 11:14:17;;;;;;;7.38;3.88;;;;;;;;;;4990680;28;20038;-76
2023/06/01 11:16:42;;;;;;;5.82;3.60;;;;;;;;;;4988860;28;20479;-73
2023/06/01 11:19:09;;;;;;;7.03;3.50;;;;;;;;;;4986067;28;20065;-75
2023/06/01 11:21:40;;;;;;;6.53;3.47;;;;;;;;;;4989284;28;20033;-76
2023/06/01 11:24:16;;;;;;;8.40;3.88;;;;;;;;;;4988477;28;20042;-74
2023/06/01 11:26:43;;;;;;;6.22;3.70;;;;;;;;;;4985864;28;20557;-74
2023/06/01 11:29:12;;;;;;;5.85;3.50;;;;;;;;;;4985456;28;20034;-74
2023/06/01 11:31:40;;;;;;;6.35;3.53;;;;;;;;;;4988374;28;20038;-73
2023/06/01 11:34:07;;;;;;;7.95;3.90;;;;;;;;;;4988728;28;20501;-75
2023/06/01 11:36:36;;;;;;;;;;;;;;;;;;4988890;28;19918;-75
2023/06/01 11:39:02;;;;;;;;;;;;;;;;;;4988529;28;20384;-75
2023/06/01 11:41:27;;;;;;;;;;;;;;;;;;4989885;28;19921;-74
2023/06/01 11:43:56;;;;;;;7.07;4.43;;;;;;;;;;4989818;28;19918;-75
2023/06/01 11:46:22;;;;;;;9.38;3.92;;;;;;;;;;4988932;28;20046;-76
2023/06/01 11:49:02;;;;;;;10.35;4.05;;;;;;;;;;4988673;28;20038;-74
2023/06/01 11:51:38;;;;;;;11.80;4.40;;;;;;;;;;4992092;28;20046;-75
2023/06/01 11:54:05;;;;;;;8.95;4.50;;;;;;;;;;4976258;28;20034;-75
2023/06/01 11:56:35;;;;;;;8.43;3.95;;;;;;;;;;4982205;28;20093;-75
2023/06/01 11:59:08;;;;;;;9.68;4.30;;;;;;;;;;4986219;28;20046;-74
2023/06/01 12:01:34;;;;;;;10.18;5.00;;;;;;;;;;4976622;28;20126;-73
2023/06/01 12:04:01;;;;;;;9.55;4.35;;;;;;;;;;4979497;28;20113;-75
2023/06/01 12:06:27;;;;;;;8.02;4.07;;;;;;;;;;4990332;28;20061;-75
2023/06/01 12:08:54;;;;;;;8.25;4.93;;;;;;;;;;4984222;28;20038;-75
2023/06/01 12:11:22;;;;;;;6.70;4.20;;;;;;;;;;4979303;28;20097;-74
2023/06/01 12:13:49;;;;;;;7.53;3.75;;;;;;;;;;4978531;28;20062;-75
2023/06/01 12:16:16;;;;;;;7.43;4.30;;;;;;;;;;4979802;28;20453;-75
2023/06/01 12:18:41;;;;;;;7.40;3.78;;;;;;;;;;4982854;28;20069;-75
2023/06/01 12:21:13;;;;;;;10.88;3.72;;;;;;;;;;4987580;28;20038;-75
2023/06/01 12:23:39;;;;;;;11.18;3.92;;;;;;;;;;4984251;28;20065;-75
2023/06/01 12:26:06;;;;;;;9.30;4.55;;;;;;;;;;4985779;28;20038;-74
2023/06/01 12:28:52;;;;;;;12.38;4.95;;;;;;;;;;4987316;28;20042;-74
2023/06/01 12:31:18;;;;;;;8.05;5.00;;;;;;;;;;4996553;28;20030;-75
2023/06/01 12:33:45;;;;;;;9.02;4.43;;;;;;;;;;4992385;28;20398;-75
2023/06/01 12:36:12;;;;;;;9.32;3.90;;;;;;;;;;4993918;28;20030;-73
2023/06/01 12:38:50;;;;;;;7.68;4.45;;;;;;;;;;4984492;28;20053;-75
2023/06/01 12:41:17;;;;;;;6.03;3.70;;;;;;;;;;4993562;28;20394;-75
2023/06/01 12:43:47;;;;;;;9.57;4.93;;;;;;;;;;4992453;28;20034;-75
2023/06/01 12:46:27;;;;;;;10.90;4.47;;;;;;;;;;4996215;28;20142;-75
2023/06/01 12:48:55;;;;;;;7.43;4.18;;;;;;;;;;4987620;28;20414;-75
2023/06/01 12:51:21;;;;;;;10.50;4.63;;;;;;;;;;4998623;28;20172;-75
2023/06/01 12:53:47;;;;;;;7.95;3.92;;;;;;;;;;4995242;28;20042;-75
2023/06/01 12:56:12;;;;;;;10.30;4.20;;;;;;;;;;4989852;28;20046;-75
2023/06/01 12:58:38;;;;;;;8.90;5.07;;;;;;;;;;4994226;28;20046;-75
2023/06/01 13:01:04;;;;;;;8.95;4.07;;;;;;;;;;4993644;28;20034;-75
2023/06/01 13:03:30;;;;;;;6.30;3.80;;;;;;;;;;4995936;28;20073;-75
2023/06/01 13:05:56;;;;;;;10.50;5.40;;;;;;;;;;5004100;28;20052;-73
2023/06/01 13:08:22;;;;;;;8.98;4.35;;;;;;;;;;4998214;28;20450;-75
2023/06/01 13:10:48;;;;;;;6.90;4.18;;;;;;;;;;4996541;28;20053;-74
2023/06/01 13:13:14;;;;;;;10.55;4.30;;;;;;;;;;4993494;28;20065;-76
2023/06/01 13:15:40;;;;;;;9.70;4.68;;;;;;;;;;4992479;28;20463;-75
2023/06/01 13:18:06;;;;;;;11.77;4.78;;;;;;;;;;4995894;28;20081;-75
2023/06/01 13:20:31;;;;;;;6.03;3.65;;;;;;;;;;4987287;28;20451;-75
2023/06/01 13:22:57;;;;;;;9.02;4.72;;;;;;;;;;4994638;28;20033;-75
2023/06/01 13:25:23;;;;;;;9.52;4.75;;;;;;;;;;4994804;28;20038;-75
2023/06/01 13:27:48;;;;;;;9.77;5.15;;;;;;;;;;4994658;28;20030;-74
2023/06/01 13:30:14;;;;;;;4.90;3.13;;;;;;;;;;4995777;28;20502;-75
2023/06/01 13:32:39;;;;;;;7.82;4.25;;;;;;;;;;4994855;28;20038;-74
2023/06/01 13:35:06;;;;;;;7.90;3.92;;;;;;;;;;4996383;28;20089;-75
2023/06/01 13:37:31;;;;;;;13.18;4.70;;;;;;;;;;4994589;28;20118;-75
2023/06/01 13:39:57;;;;;;;11.30;4.50;;;;;;;;;;4995249;28;20125;-75
2023/06/01 13:42:22;;;;;;;14.80;5.05;;;;;;;;;;4992421;28;20030;-75
2023/06/01 13:44:48;;;;;;;9.27;4.47;;;;;;;;;;4992926;28;20034;-73
2023/06/01 13:47:16;;;;;;;7.63;3.80;;;;;;;;;;4988306;28;20409;-74
2023/06/01 13:49:43;;;;;;;8.68;4.70;;;;;;;;;;4992211;28;20122;-74
2023/06/01 13:52:09;;;;;;;11.00;4.60;;;;;;;;;;4991477;28;20069;-75
2023/06/01 13:54:34;;;;;;;7.10;3.80;;;;;;;;;;4989239;28;20123;-75
2023/06/01 13:57:02;;;;;;;10.20;5.22;;;;;;;;;;4991762;28;20497;-74
2023/06/01 13:59:30;;;;;;;8.50;3.90;;;;;;;;;;4988603;28;20054;-74
2023/06/01 14:01:56;;;;;;;13.85;3.92;;;;;;;;;;4990477;28;20049;-73
2023/06/01 14:04:22;;;;;;;10.07;5.45;;;;;;;;;;4992667;28;20387;-75
2023/06/01 14:06:50;;;;;;;12.02;5.15;;;;;;;;;;4990220;28;20038;-75
2023/06/01 14:09:16;;;;;;;8.32;4.80;;;;;;;;;;4990439;28;20042;-75
2023/06/01 14:11:41;;;;;;;9.15;4.28;;;;;;;;;;4990985;28;20034;-75
2023/06/01 14:14:06;;;;;;;8.65;5.00;;;;;;;;;;4992116;28;20443;-75
2023/06/01 14:16:32;;;;;;;10.52;4.28;;;;;;;;;;4992191;28;20034;-75
2023/06/01 14:18:57;;;;;;;11.93;4.53;;;;;;;;;;4991319;28;20030;-75
2023/06/01 14:21:23;;;;;;;7.60;4.45;;;;;;;;;;4991066;28;20034;-75
2023/06/01 14:23:49;;;;;;;9.70;4.68;;;;;;;;;;4991386;28;20042;-75
2023/06/01 14:26:15;;;;;;;7.78;3.67;;;;;;;;;;4991923;28;20037;-73
2023/06/01 14:28:40;;;;;;;7.95;3.72;;;;;;;;;;4991768;28;20455;-75
2023/06/01 14:31:05;;;;;;;9.25;4.15;;;;;;;;;;4990400;28;20417;-74
2023/06/01 14:33:31;;;;;;;10.88;4.68;;;;;;;;;;4991398;28;20072;-75
2023/06/01 14:35:56;;;;;;;9.32;4.10;;;;;;;;;;4991890;28;20054;-75
2023/06/01 14:38:22;;;;;;;9.32;4.88;;;;;;;;;;4992031;28;20034;-74
2023/06/01 14:40:47;;;;;;;8.40;4.00;;;;;;;;;;4991128;28;20034;-75
2023/06/01 14:43:12;;;;;;;8.40;4.40;;;;;;;;;;4991403;28;20022;-75
2023/06/01 14:45:38;;;;;;;8.75;4.20;;;;;;;;;;4991070;28;20096;-75